首页
METAR-TAF:

METAR-TAF

机场 :

普爾科沃機場

圣彼得堡, 俄罗斯

纬度: 59-58N, 经度: 030-18E, 海拔: 4米

当前天气观测

该预报发布于38分钟前的21:00 UTC
风速10节,风向西,在西之间变化
温度 11°C
湿度 71%
气压 1012 hPa
能见度10公里或以上
1500米以下无云,无积雨云

METAR: ULLI 202100Z 26005MPS 190V280 CAVOK 11/06 Q1012 R28L/090060 NOSIG

时间: 00:38 (21:38 UTC)

预报

该预报发布于1小时和45分钟前的19:53 UTC
预报有效从20日的 21点(UTC)到 21日的 21点(UTC)
风速12节,风向西转西南
能见度10公里或以上
多云层高于3000英尺
短暂存在
从 20日的 21点(UTC)到 21日的 06点(UTC)
风速10节,风向西,有时为19节阵风
多云层高于1100英尺
多云层高于2000英尺, 积雨云.
小阵雨
成为
从 21日的 06点(UTC)到 21日的 08点(UTC)
风速12节,风向西
短暂存在
从 21日的 08点(UTC)到 21日的 21点(UTC)
风速14节,风向西南,有时为27节阵风

TAF: ULLI 201953Z 2021/2121 24006MPS 9999 BKN030 TEMPO 2021/2106 27005G10MPS -SHRA BKN011 BKN020CB BECMG 2106/2108 27006MPS TEMPO 2108/2121 23007G14MPS

超过4000个机场的气象观测和天气预报(METAR&TAF报告)。

可查询的气象台以黄色和红色小点在地图上表示。

将鼠标移到小点上方,可查看气象台名称。

然后点击查看天气观测和预报。

如需切换地图:点击带黑十字的绿色按钮放大地图;点击带横线的绿色按钮缩小地图;或者点击绿色箭头查看邻近地区的地图。


METAR-TAF: